DW7823 Marysville WA US current weather conditions

sailwx.info

Wind from 096

Air temperature 13.3° C
Dewpoint 11.2° C

Last reported at 2020-Aug-10 08:03 UTC.
Time now 2020-Aug-10 08:25 UTC

Location: N 48°06' W 122°09'.
View on Google Maps.

See reports from other nearby stations

  
Tides and Currents Weather Stations Pressure Air Temp Water Temp Dewpoint Dewpoint Depression Visibility Wind Speed Wind Dir Waves Ship Positions
date/time (UTC)wind fromknots sea level pressurealtimeterstation pressurevisibilityair tempwater tempwave heightnotes
2020-Aug-10 08:03 096 13.3
2020-Aug-10 07:53 095 13.3
2020-Aug-10 07:43 096 13.3
2020-Aug-10 07:33 096 13.3
2020-Aug-10 07:23 096 13.9
2020-Aug-10 07:13 096 14.4
2020-Aug-10 07:03 049 14.4
2020-Aug-10 06:53 103 13.9
2020-Aug-10 06:43 106 14.4
2020-Aug-10 06:33 340 14.4
2020-Aug-10 06:23 340 15.0
2020-Aug-10 06:13 338 15.0
2020-Aug-10 06:03 340 15.0
2020-Aug-10 05:53 339 15.0
2020-Aug-10 05:43 335 15.6
2020-Aug-10 05:33 016 15.6
2020-Aug-10 05:23 098 15.6
2020-Aug-10 05:13 100 16.1
2020-Aug-10 05:03 101 16.7
2020-Aug-10 04:53 101 16.7
2020-Aug-10 04:43 101 17.2
2020-Aug-10 04:33 100 17.8
2020-Aug-10 04:23 047 17.8
2020-Aug-10 04:13 047 18.3
2020-Aug-10 04:03 049 18.9
2020-Aug-10 03:53 049 18.9
2020-Aug-10 03:43 326 19.4
2020-Aug-10 03:33 325 20.0
2020-Aug-10 03:23 329 0 gusting 2 20.6
2020-Aug-10 03:13 323 1 gusting 3 21.1
2020-Aug-10 03:03 330 21.7
2020-Aug-10 02:53 248 2 gusting 6 21.7
2020-Aug-10 02:43 309 3 gusting 6 22.2
2020-Aug-10 02:33 333 0 gusting 5 22.8
2020-Aug-10 02:23 318 1 gusting 4 23.3
2020-Aug-10 02:13 341 23.9
2020-Aug-10 02:03 316 1 gusting 3 23.9
2020-Aug-10 01:53 274 3 gusting 6 23.9
2020-Aug-10 01:43 319 0 gusting 4 23.9
2020-Aug-10 01:33 325 3 gusting 7 23.3
2020-Aug-10 01:23 322 1 gusting 6 23.3
2020-Aug-10 01:13 330 4 gusting 7 23.9
2020-Aug-10 01:03 257 2 gusting 6 23.9
2020-Aug-10 00:53 308 2 gusting 7 23.9
2020-Aug-10 00:43 321 0 gusting 6 23.9
2020-Aug-10 00:33 125 1 gusting 6 23.9
2020-Aug-10 00:23 322 1 gusting 6 23.9
2020-Aug-10 00:13 338 1 gusting 4 23.9
2020-Aug-10 00:03 332 1 gusting 5 23.9
2020-Aug-09 23:53 298 0 gusting 5 23.9
2020-Aug-09 23:43 295 1 gusting 5 23.9
2020-Aug-09 23:33 290 0 gusting 7 23.9
2020-Aug-09 23:23 316 2 gusting 6 23.3
2020-Aug-09 23:13 314 0 gusting 6 23.9
2020-Aug-09 23:03 333 2 gusting 7 23.9
2020-Aug-09 22:53 321 1 gusting 6 23.3
2020-Aug-09 22:43 333 3 gusting 8 23.3
2020-Aug-09 22:33 316 3 gusting 8 23.9
2020-Aug-09 22:23 330 2 gusting 6 23.9
2020-Aug-09 22:13 336 4 gusting 8 23.9
2020-Aug-09 22:03 325 5 gusting 8 23.3
2020-Aug-09 21:54 338 4 gusting 6 22.8
2020-Aug-09 21:43 360 1 gusting 5 23.3
2020-Aug-09 21:33 321 2 gusting 6 23.3
2020-Aug-09 21:23 322 2 gusting 7 22.8
2020-Aug-09 21:13 310 3 gusting 8 23.3
2020-Aug-09 21:03 330 2 gusting 7 22.8
2020-Aug-09 20:53 338 2 gusting 9 22.8
2020-Aug-09 20:43 319 2 gusting 8 22.8
2020-Aug-09 20:33 327 0 gusting 8 22.8
2020-Aug-09 20:23 278 2 gusting 6 22.2
2020-Aug-09 20:13 325 4 gusting 9 22.2
2020-Aug-09 20:03 351 2 gusting 7 22.2
2020-Aug-09 19:53 325 1 gusting 6 22.2
2020-Aug-09 19:43 278 0 gusting 8 22.2
2020-Aug-09 19:33 284 3 gusting 8 22.2
2020-Aug-09 19:23 273 1 gusting 5 21.7
2020-Aug-09 19:13 325 2 gusting 8 21.1
2020-Aug-09 19:03 331 2 gusting 6 21.1
2020-Aug-09 18:53 322 1 gusting 5 21.1
2020-Aug-09 18:43 358 1 gusting 4 21.1
2020-Aug-09 18:33 030 0 gusting 5 20.6
2020-Aug-09 18:23 058 20.0
2020-Aug-09 18:13 325 0 gusting 5 20.0
2020-Aug-09 18:03 318 1 gusting 4 20.0
2020-Aug-09 17:53 006 19.4
2020-Aug-09 17:43 347 19.4
2020-Aug-09 17:33 340 1 gusting 4 18.9
2020-Aug-09 17:23 329 3 gusting 5 18.3
2020-Aug-09 17:13 302 18.3
2020-Aug-09 17:03 212 17.8
2020-Aug-09 16:53 260 0 gusting 2 17.8
2020-Aug-09 16:43 137 17.2
2020-Aug-09 16:33 091 16.7
2020-Aug-09 16:23 221 16.1
2020-Aug-09 16:13 331 15.6
2020-Aug-09 16:03 328 15.0
2020-Aug-09 15:53 149 15.0
2020-Aug-09 15:43 246 14.4
2020-Aug-09 15:33 261 0 gusting 1 13.9
2020-Aug-09 15:23 273 13.3
2020-Aug-09 15:13 025 13.3
2020-Aug-09 15:03 108 12.8
2020-Aug-09 14:53 009 12.2
2020-Aug-09 14:43 355 11.7
2020-Aug-09 14:33 354 11.1
2020-Aug-09 14:23 049 11.1
2020-Aug-09 14:13 049 10.0
2020-Aug-09 14:03 049 8.9
2020-Aug-09 13:53 047 8.9
2020-Aug-09 13:43 047 8.9
2020-Aug-09 13:33 047 8.3
2020-Aug-09 13:23 047 8.3
2020-Aug-09 13:13 047 8.9
2020-Aug-09 13:03 047 8.9
2020-Aug-09 12:53 047 8.9
2020-Aug-09 12:43 046 8.3
2020-Aug-09 12:33 047 8.9
2020-Aug-09 12:23 046 8.9
2020-Aug-09 12:13 047 8.9
2020-Aug-09 12:03 047 8.9
2020-Aug-09 11:53 047 8.9
2020-Aug-09 11:43 045 8.9
2020-Aug-09 11:33 046 8.9
2020-Aug-09 11:23 046 8.9
2020-Aug-09 11:13 045 8.9
2020-Aug-09 11:03 047 8.9
2020-Aug-09 10:53 046 9.4
2020-Aug-09 10:43 046 9.4
2020-Aug-09 10:33 045 9.4
2020-Aug-09 10:23 047 9.4
2020-Aug-09 10:13 046 10.0
2020-Aug-09 10:03 046 10.0
2020-Aug-09 09:53 045 10.0
2020-Aug-09 09:43 046 10.0
2020-Aug-09 09:33 047 10.6
2020-Aug-09 09:23 050 10.6
2020-Aug-09 09:13 049 10.6
2020-Aug-09 09:03 050 11.1
2020-Aug-09 08:53 049 11.1
2020-Aug-09 08:43 049 11.1
2020-Aug-09 08:33 049 11.1
2020-Aug-09 08:23 049 11.1
2020-Aug-09 08:13 050 11.7
2020-Aug-09 08:03 050 11.7
2020-Aug-09 07:53 050 12.2
2020-Aug-09 07:43 049 11.7
2020-Aug-09 07:33 041 11.7
2020-Aug-09 07:23 041 12.2
2020-Aug-09 07:13 041 12.2
2020-Aug-09 07:03 041 12.8
2020-Aug-09 06:53 041 12.8
2020-Aug-09 06:43 047 12.8
2020-Aug-09 06:33 036 12.8
2020-Aug-09 06:23 036 12.8
2020-Aug-09 06:13 036 13.3
2020-Aug-09 06:03 041 13.3
2020-Aug-09 05:53 082 13.9
2020-Aug-09 05:43 351 13.9
2020-Aug-09 05:33 049 14.4
2020-Aug-09 05:23 347 14.4
2020-Aug-09 05:13 338 14.4
2020-Aug-09 05:03 338 15.0
2020-Aug-09 04:53 101 14.4
2020-Aug-09 04:43 001 15.0
2020-Aug-09 04:33 003 15.0
2020-Aug-09 04:23 052 15.6
2020-Aug-09 04:13 345 15.6
2020-Aug-09 04:03 346 16.1
2020-Aug-09 03:53 302 16.1
2020-Aug-09 03:43 343 16.7
2020-Aug-09 03:33 277 17.2
2020-Aug-09 03:23 281 0 gusting 3 17.2
2020-Aug-09 03:13 284 1 gusting 5 17.8
2020-Aug-09 03:03 288 1 gusting 5 18.3
2020-Aug-09 02:53 284 2 gusting 5 18.9
2020-Aug-09 02:43 259 1 gusting 6 18.9
2020-Aug-09 02:33 284 1 gusting 6 19.4
2020-Aug-09 02:23 290 0 gusting 6 19.4
2020-Aug-09 02:13 261 3 gusting 6 19.4
2020-Aug-09 02:03 240 2 gusting 6 20.0
2020-Aug-09 01:53 265 4 gusting 7 20.0
2020-Aug-09 01:43 269 3 gusting 7 20.6
2020-Aug-09 01:33 263 2 gusting 6 20.6
2020-Aug-09 01:23 309 1 gusting 5 21.1
2020-Aug-09 01:13 277 2 gusting 8 21.1
2020-Aug-09 01:03 163 0 gusting 6 20.6
2020-Aug-09 00:53 333 3 gusting 7 20.6
2020-Aug-09 00:43 249 4 gusting 6 20.6
2020-Aug-09 00:33 277 3 gusting 6 21.1
2020-Aug-09 00:23 246 2 gusting 5 21.1
2020-Aug-09 00:13 281 3 gusting 6 21.1
2020-Aug-09 00:03 027 2 gusting 5 21.1
2020-Aug-08 23:53 298 2 gusting 5 21.1
2020-Aug-08 23:43 261 3 gusting 6 20.6
2020-Aug-08 23:33 337 2 gusting 5 20.6
2020-Aug-08 23:23 277 0 gusting 4 21.1
2020-Aug-08 23:13 332 0 gusting 4 21.1
2020-Aug-08 23:03 314 1 gusting 6 21.1
2020-Aug-08 22:53 330 2 gusting 6 20.6
2020-Aug-08 22:43 321 0 gusting 6 20.6
2020-Aug-08 22:33 296 0 gusting 7 20.0
2020-Aug-08 22:23 316 2 gusting 6 20.0
2020-Aug-08 22:13 295 2 gusting 6 20.0
2020-Aug-08 22:03 252 3 gusting 6 20.0
2020-Aug-08 21:53 287 1 gusting 4 20.6
2020-Aug-08 21:43 321 1 gusting 5 20.6
2020-Aug-08 21:33 232 1 gusting 6 20.0
2020-Aug-08 21:23 149 2 gusting 3 20.6
2020-Aug-08 21:13 340 1 gusting 5 20.6
2020-Aug-08 21:03 308 2 gusting 4 20.6
2020-Aug-08 20:53 352 0 gusting 2 20.0
2020-Aug-08 20:43 075 0 gusting 1 20.0
2020-Aug-08 20:33 254 0 gusting 3 18.9
2020-Aug-08 20:23 252 0 gusting 6 18.9
2020-Aug-08 20:13 235 1 gusting 5 18.3
2020-Aug-08 20:03 252 0 gusting 3 18.3
2020-Aug-08 19:53 283 0 gusting 3 18.3
2020-Aug-08 19:43 269 17.8
2020-Aug-08 19:33 292 2 gusting 6 17.2
2020-Aug-08 19:23 276 1 gusting 3 17.8
2020-Aug-08 19:13 246 2 gusting 4 17.2
2020-Aug-08 19:03 278 1 gusting 3 17.8
2020-Aug-08 18:53 051 17.2
2020-Aug-08 18:43 046 16.7
2020-Aug-08 18:33 334 0 gusting 2 16.7
2020-Aug-08 18:23 327 16.7
2020-Aug-08 18:13 288 16.1
2020-Aug-08 18:03 333 16.1
2020-Aug-08 17:53 333 0 gusting 1 16.1
2020-Aug-08 17:43 262 16.1
2020-Aug-08 17:33 328 16.1
2020-Aug-08 17:23 043 16.1
2020-Aug-08 17:13 029 15.6
2020-Aug-08 17:03 023 15.6
2020-Aug-08 16:53 023 15.0
2020-Aug-08 16:43 321 15.0
2020-Aug-08 16:33 025 15.0
2020-Aug-08 16:23 026 15.0
2020-Aug-08 16:13 025 15.0
2020-Aug-08 16:03 047 14.4
2020-Aug-08 15:53 047 14.4
2020-Aug-08 15:43 043 0 gusting 1 14.4
2020-Aug-08 15:33 025 14.4
2020-Aug-08 15:23 025 14.4
2020-Aug-08 15:13 026 14.4
2020-Aug-08 15:03 026 14.4
2020-Aug-08 14:53 322 13.9
2020-Aug-08 14:43 068 13.9
2020-Aug-08 14:33 068 13.9
2020-Aug-08 14:23 068 13.9
2020-Aug-08 14:13 328 13.9
2020-Aug-08 14:03 331 13.9
2020-Aug-08 13:53 305 13.9
2020-Aug-08 13:43 303 13.9
2020-Aug-08 13:33 304 13.9
2020-Aug-08 13:23 303 13.9
2020-Aug-08 13:13 332 14.4
2020-Aug-08 13:03 356 14.4
2020-Aug-08 12:53 329 14.4
2020-Aug-08 12:43 336 14.4
2020-Aug-08 12:33 336 14.4
2020-Aug-08 12:23 336 14.4
2020-Aug-08 12:13 335 14.4
2020-Aug-08 12:03 344 14.4
2020-Aug-08 11:53 332 14.4
2020-Aug-08 11:43 331 14.4
2020-Aug-08 11:33 332 14.4
2020-Aug-08 11:23 332 14.4
2020-Aug-08 11:13 332 14.4
2020-Aug-08 11:03 307 14.4
2020-Aug-08 10:53 308 14.4
2020-Aug-08 10:43 338 14.4
2020-Aug-08 10:33 319 14.4
2020-Aug-08 10:23 316 14.4
2020-Aug-08 10:13 325 14.4
2020-Aug-08 10:03 295 14.4
2020-Aug-08 09:53 319 0 gusting 3 14.4
2020-Aug-08 09:43 342 0 gusting 1 14.4
2020-Aug-08 09:33 330 1 gusting 4 14.4
2020-Aug-08 09:23 324 14.4
2020-Aug-08 09:13 322 1 gusting 4 14.4
2020-Aug-08 09:03 307 15.0
2020-Aug-08 08:53 304 14.4
2020-Aug-08 08:43 340 14.4
2020-Aug-08 08:33 330 14.4
2020-Aug-08 08:23 326 14.4
2020-Aug-08 08:13 326 14.4
2020-Aug-08 08:03 356 14.4